sensor_id;sensor_type;location;lat;lon;timestamp;temperature;humidity
68691;DHT22;55675;49.588;8.640;2023-04-15T00:00:38;7.90;82.10
68691;DHT22;55675;49.588;8.640;2023-04-15T00:03:03;7.80;82.10
68691;DHT22;55675;49.588;8.640;2023-04-15T00:05:32;7.80;82.20
68691;DHT22;55675;49.588;8.640;2023-04-15T00:07:59;7.80;82.40
68691;DHT22;55675;49.588;8.640;2023-04-15T00:10:26;7.70;82.60
68691;DHT22;55675;49.588;8.640;2023-04-15T00:12:52;7.70;82.90
68691;DHT22;55675;49.588;8.640;2023-04-15T00:15:18;7.70;83.10
68691;DHT22;55675;49.588;8.640;2023-04-15T00:17:43;7.60;83.50
68691;DHT22;55675;49.588;8.640;2023-04-15T00:20:09;7.60;83.90
68691;DHT22;55675;49.588;8.640;2023-04-15T00:22:35;7.60;84.20
68691;DHT22;55675;49.588;8.640;2023-04-15T00:25:00;7.60;84.50
68691;DHT22;55675;49.588;8.640;2023-04-15T00:27:26;7.60;84.70
68691;DHT22;55675;49.588;8.640;2023-04-15T00:29:53;7.60;84.70
68691;DHT22;55675;49.588;8.640;2023-04-15T00:32:18;7.60;85.00
68691;DHT22;55675;49.588;8.640;2023-04-15T00:34:44;7.60;85.90
68691;DHT22;55675;49.588;8.640;2023-04-15T00:37:10;7.60;85.20
68691;DHT22;55675;49.588;8.640;2023-04-15T00:39:36;7.60;85.50
68691;DHT22;55675;49.588;8.640;2023-04-15T00:42:05;7.50;85.70
68691;DHT22;55675;49.588;8.640;2023-04-15T00:44:31;7.50;86.00
68691;DHT22;55675;49.588;8.640;2023-04-15T00:46:59;7.50;86.40
68691;DHT22;55675;49.588;8.640;2023-04-15T00:49:24;7.50;86.60
68691;DHT22;55675;49.588;8.640;2023-04-15T00:51:51;7.60;86.80
68691;DHT22;55675;49.588;8.640;2023-04-15T00:54:16;7.60;86.70
68691;DHT22;55675;49.588;8.640;2023-04-15T00:56:42;7.50;86.80
68691;DHT22;55675;49.588;8.640;2023-04-15T00:59:08;7.50;87.10
68691;DHT22;55675;49.588;8.640;2023-04-15T01:01:35;7.50;87.10
68691;DHT22;55675;49.588;8.640;2023-04-15T01:04:01;7.50;86.90
68691;DHT22;55675;49.588;8.640;2023-04-15T01:06:28;7.40;86.70
68691;DHT22;55675;49.588;8.640;2023-04-15T01:08:54;7.30;86.90
68691;DHT22;55675;49.588;8.640;2023-04-15T01:11:20;7.20;87.10
68691;DHT22;55675;49.588;8.640;2023-04-15T01:13:48;7.20;87.60
68691;DHT22;55675;49.588;8.640;2023-04-15T01:16:14;7.10;87.60
68691;DHT22;55675;49.588;8.640;2023-04-15T01:18:41;7.10;87.80
68691;DHT22;55675;49.588;8.640;2023-04-15T01:21:06;7.00;88.00
68691;DHT22;55675;49.588;8.640;2023-04-15T01:23:35;7.00;88.40
68691;DHT22;55675;49.588;8.640;2023-04-15T01:26:02;6.90;88.50
68691;DHT22;55675;49.588;8.640;2023-04-15T01:28:28;6.90;88.80
68691;DHT22;55675;49.588;8.640;2023-04-15T01:33:31;6.90;89.10
68691;DHT22;55675;49.588;8.640;2023-04-15T01:35:57;6.90;89.30
68691;DHT22;55675;49.588;8.640;2023-04-15T01:38:23;6.90;89.30
68691;DHT22;55675;49.588;8.640;2023-04-15T01:40:48;6.90;89.50
68691;DHT22;55675;49.588;8.640;2023-04-15T01:43:14;6.80;89.60
68691;DHT22;55675;49.588;8.640;2023-04-15T01:45:39;6.90;89.80
68691;DHT22;55675;49.588;8.640;2023-04-15T01:48:06;6.80;90.10
68691;DHT22;55675;49.588;8.640;2023-04-15T01:50:31;6.70;90.40
68691;DHT22;55675;49.588;8.640;2023-04-15T01:52:57;6.70;90.40
68691;DHT22;55675;49.588;8.640;2023-04-15T01:55:22;6.60;90.60
68691;DHT22;55675;49.588;8.640;2023-04-15T01:57:48;6.60;90.50
68691;DHT22;55675;49.588;8.640;2023-04-15T02:00:14;6.50;90.60
68691;DHT22;55675;49.588;8.640;2023-04-15T02:02:39;6.50;90.60
68691;DHT22;55675;49.588;8.640;2023-04-15T02:05:05;6.50;90.60
68691;DHT22;55675;49.588;8.640;2023-04-15T02:07:31;6.50;90.60
68691;DHT22;55675;49.588;8.640;2023-04-15T02:09:56;6.40;90.70
68691;DHT22;55675;49.588;8.640;2023-04-15T02:12:22;6.40;90.70
68691;DHT22;55675;49.588;8.640;2023-04-15T02:14:47;6.40;90.80
68691;DHT22;55675;49.588;8.640;2023-04-15T02:17:13;6.40;90.90
68691;DHT22;55675;49.588;8.640;2023-04-15T02:19:38;6.30;90.90
68691;DHT22;55675;49.588;8.640;2023-04-15T02:22:04;6.40;91.00
68691;DHT22;55675;49.588;8.640;2023-04-15T02:24:31;6.40;91.00
68691;DHT22;55675;49.588;8.640;2023-04-15T02:26:57;6.40;91.10
68691;DHT22;55675;49.588;8.640;2023-04-15T02:29:23;6.40;91.20
68691;DHT22;55675;49.588;8.640;2023-04-15T02:31:48;6.40;91.20
68691;DHT22;55675;49.588;8.640;2023-04-15T02:34:14;6.40;91.30
68691;DHT22;55675;49.588;8.640;2023-04-15T02:36:40;6.40;91.40
68691;DHT22;55675;49.588;8.640;2023-04-15T02:39:05;6.40;91.40
68691;DHT22;55675;49.588;8.640;2023-04-15T02:41:32;6.40;91.30
68691;DHT22;55675;49.588;8.640;2023-04-15T02:43:58;6.40;91.30
68691;DHT22;55675;49.588;8.640;2023-04-15T02:46:23;6.30;91.40
68691;DHT22;55675;49.588;8.640;2023-04-15T02:48:49;6.30;91.40
68691;DHT22;55675;49.588;8.640;2023-04-15T02:51:17;6.30;91.50
68691;DHT22;55675;49.588;8.640;2023-04-15T02:53:44;6.30;91.50
68691;DHT22;55675;49.588;8.640;2023-04-15T02:56:10;6.30;91.60
68691;DHT22;55675;49.588;8.640;2023-04-15T02:58:36;6.30;91.70
68691;DHT22;55675;49.588;8.640;2023-04-15T03:01:01;6.40;91.80
68691;DHT22;55675;49.588;8.640;2023-04-15T03:03:27;6.30;91.80
68691;DHT22;55675;49.588;8.640;2023-04-15T03:05:53;6.40;91.90
68691;DHT22;55675;49.588;8.640;2023-04-15T03:08:18;6.40;91.90
68691;DHT22;55675;49.588;8.640;2023-04-15T03:10:45;6.40;91.90
68691;DHT22;55675;49.588;8.640;2023-04-15T03:13:11;6.40;91.90
68691;DHT22;55675;49.588;8.640;2023-04-15T03:15:37;6.40;91.90
68691;DHT22;55675;49.588;8.640;2023-04-15T03:18:03;6.30;91.90
68691;DHT22;55675;49.588;8.640;2023-04-15T03:20:28;6.30;91.90
68691;DHT22;55675;49.588;8.640;2023-04-15T03:22:54;6.30;91.90
68691;DHT22;55675;49.588;8.640;2023-04-15T03:25:19;6.20;91.90
68691;DHT22;55675;49.588;8.640;2023-04-15T03:27:45;6.10;91.80
68691;DHT22;55675;49.588;8.640;2023-04-15T03:30:11;6.10;91.60
68691;DHT22;55675;49.588;8.640;2023-04-15T03:32:36;6.00;91.90
68691;DHT22;55675;49.588;8.640;2023-04-15T03:35:02;5.90;91.70
68691;DHT22;55675;49.588;8.640;2023-04-15T03:37:28;5.90;91.70
68691;DHT22;55675;49.588;8.640;2023-04-15T03:39:53;5.90;91.80
68691;DHT22;55675;49.588;8.640;2023-04-15T03:42:19;5.80;92.20
68691;DHT22;55675;49.588;8.640;2023-04-15T03:44:44;5.80;91.90
68691;DHT22;55675;49.588;8.640;2023-04-15T03:47:10;5.80;92.00
68691;DHT22;55675;49.588;8.640;2023-04-15T03:49:36;5.80;92.00
68691;DHT22;55675;49.588;8.640;2023-04-15T03:52:02;5.70;92.10
68691;DHT22;55675;49.588;8.640;2023-04-15T03:54:27;5.70;92.20
68691;DHT22;55675;49.588;8.640;2023-04-15T03:56:53;5.70;92.30
68691;DHT22;55675;49.588;8.640;2023-04-15T03:59:18;5.70;92.30
68691;DHT22;55675;49.588;8.640;2023-04-15T04:01:44;5.70;92.30
68691;DHT22;55675;49.588;8.640;2023-04-15T04:04:10;5.80;92.30
68691;DHT22;55675;49.588;8.640;2023-04-15T04:06:35;5.80;92.40
68691;DHT22;55675;49.588;8.640;2023-04-15T04:09:01;5.80;92.40
68691;DHT22;55675;49.588;8.640;2023-04-15T04:11:26;5.80;92.50
68691;DHT22;55675;49.588;8.640;2023-04-15T04:13:52;5.80;92.50
68691;DHT22;55675;49.588;8.640;2023-04-15T04:16:18;5.70;92.50
68691;DHT22;55675;49.588;8.640;2023-04-15T04:18:44;5.80;92.60
68691;DHT22;55675;49.588;8.640;2023-04-15T04:21:09;5.80;92.50
68691;DHT22;55675;49.588;8.640;2023-04-15T04:23:35;5.70;92.60
68691;DHT22;55675;49.588;8.640;2023-04-15T04:26:00;5.70;92.60
68691;DHT22;55675;49.588;8.640;2023-04-15T04:28:26;5.80;92.70
68691;DHT22;55675;49.588;8.640;2023-04-15T04:30:52;5.80;92.70
68691;DHT22;55675;49.588;8.640;2023-04-15T04:33:18;5.80;92.70
68691;DHT22;55675;49.588;8.640;2023-04-15T04:35:43;5.90;92.70
68691;DHT22;55675;49.588;8.640;2023-04-15T04:38:09;5.90;92.70
68691;DHT22;55675;49.588;8.640;2023-04-15T04:40:35;5.90;92.80
68691;DHT22;55675;49.588;8.640;2023-04-15T04:43:01;6.00;92.80
68691;DHT22;55675;49.588;8.640;2023-04-15T04:45:26;6.00;93.00
68691;DHT22;55675;49.588;8.640;2023-04-15T04:47:52;6.00;92.80
68691;DHT22;55675;49.588;8.640;2023-04-15T04:50:17;6.10;92.90
68691;DHT22;55675;49.588;8.640;2023-04-15T04:52:43;6.10;92.90
68691;DHT22;55675;49.588;8.640;2023-04-15T04:55:09;6.10;92.90
68691;DHT22;55675;49.588;8.640;2023-04-15T04:57:34;6.20;93.00
68691;DHT22;55675;49.588;8.640;2023-04-15T05:00:01;6.10;93.00
68691;DHT22;55675;49.588;8.640;2023-04-15T05:02:27;6.10;93.00
68691;DHT22;55675;49.588;8.640;2023-04-15T05:04:53;6.10;93.10
68691;DHT22;55675;49.588;8.640;2023-04-15T05:07:18;6.10;93.20
68691;DHT22;55675;49.588;8.640;2023-04-15T05:09:45;6.10;93.20
68691;DHT22;55675;49.588;8.640;2023-04-15T05:12:11;6.20;93.30
68691;DHT22;55675;49.588;8.640;2023-04-15T05:14:39;6.20;93.30
68691;DHT22;55675;49.588;8.640;2023-04-15T05:17:05;6.20;93.40
68691;DHT22;55675;49.588;8.640;2023-04-15T05:19:31;6.20;93.40
68691;DHT22;55675;49.588;8.640;2023-04-15T05:21:56;6.20;93.40
68691;DHT22;55675;49.588;8.640;2023-04-15T05:24:22;6.20;93.50
68691;DHT22;55675;49.588;8.640;2023-04-15T05:26:47;6.20;93.40
68691;DHT22;55675;49.588;8.640;2023-04-15T05:29:13;6.20;93.20
68691;DHT22;55675;49.588;8.640;2023-04-15T05:31:38;6.10;93.00
68691;DHT22;55675;49.588;8.640;2023-04-15T05:34:05;6.10;92.90
68691;DHT22;55675;49.588;8.640;2023-04-15T05:36:31;6.10;92.90
68691;DHT22;55675;49.588;8.640;2023-04-15T05:38:57;6.10;92.80
68691;DHT22;55675;49.588;8.640;2023-04-15T05:41:22;6.00;92.80
68691;DHT22;55675;49.588;8.640;2023-04-15T05:43:48;6.10;92.90
68691;DHT22;55675;49.588;8.640;2023-04-15T05:46:13;6.00;92.90
68691;DHT22;55675;49.588;8.640;2023-04-15T05:48:39;6.10;93.00
68691;DHT22;55675;49.588;8.640;2023-04-15T05:51:05;6.10;92.90
68691;DHT22;55675;49.588;8.640;2023-04-15T05:53:30;6.10;92.90
68691;DHT22;55675;49.588;8.640;2023-04-15T05:55:56;6.10;93.00
68691;DHT22;55675;49.588;8.640;2023-04-15T05:58:22;6.10;93.10
68691;DHT22;55675;49.588;8.640;2023-04-15T06:00:47;6.10;93.10
68691;DHT22;55675;49.588;8.640;2023-04-15T06:03:13;6.20;93.20
68691;DHT22;55675;49.588;8.640;2023-04-15T06:05:38;6.20;93.20
68691;DHT22;55675;49.588;8.640;2023-04-15T06:08:05;6.20;93.10
68691;DHT22;55675;49.588;8.640;2023-04-15T06:10:30;6.30;93.10
68691;DHT22;55675;49.588;8.640;2023-04-15T06:13:03;6.30;93.00
68691;DHT22;55675;49.588;8.640;2023-04-15T06:15:29;6.30;93.00
68691;DHT22;55675;49.588;8.640;2023-04-15T06:17:54;6.40;93.10
68691;DHT22;55675;49.588;8.640;2023-04-15T06:20:20;6.60;93.20
68691;DHT22;55675;49.588;8.640;2023-04-15T06:22:45;6.70;93.20
68691;DHT22;55675;49.588;8.640;2023-04-15T06:25:11;6.80;93.10
68691;DHT22;55675;49.588;8.640;2023-04-15T06:27:37;7.00;93.10
68691;DHT22;55675;49.588;8.640;2023-04-15T06:30:03;7.10;92.90
68691;DHT22;55675;49.588;8.640;2023-04-15T06:32:29;7.30;92.80
68691;DHT22;55675;49.588;8.640;2023-04-15T06:34:54;7.50;92.70
68691;DHT22;55675;49.588;8.640;2023-04-15T06:37:20;7.70;92.60
68691;DHT22;55675;49.588;8.640;2023-04-15T06:39:46;7.90;92.50
68691;DHT22;55675;49.588;8.640;2023-04-15T06:42:12;8.10;92.50
68691;DHT22;55675;49.588;8.640;2023-04-15T06:44:38;8.30;92.40
68691;DHT22;55675;49.588;8.640;2023-04-15T06:47:03;8.50;92.20
68691;DHT22;55675;49.588;8.640;2023-04-15T06:49:29;8.60;92.00
68691;DHT22;55675;49.588;8.640;2023-04-15T06:51:54;8.80;91.80
68691;DHT22;55675;49.588;8.640;2023-04-15T06:54:20;8.90;91.20
68691;DHT22;55675;49.588;8.640;2023-04-15T06:56:46;9.00;91.10
68691;DHT22;55675;49.588;8.640;2023-04-15T06:59:12;9.10;91.10
68691;DHT22;55675;49.588;8.640;2023-04-15T07:01:39;9.20;91.20
68691;DHT22;55675;49.588;8.640;2023-04-15T07:04:05;9.30;90.70
68691;DHT22;55675;49.588;8.640;2023-04-15T07:06:31;9.50;90.50
68691;DHT22;55675;49.588;8.640;2023-04-15T07:08:57;9.60;90.20
68691;DHT22;55675;49.588;8.640;2023-04-15T07:11:24;9.90;90.10
68691;DHT22;55675;49.588;8.640;2023-04-15T07:13:50;10.00;89.80
68691;DHT22;55675;49.588;8.640;2023-04-15T07:16:15;10.20;88.70
68691;DHT22;55675;49.588;8.640;2023-04-15T07:18:41;10.40;88.10
68691;DHT22;55675;49.588;8.640;2023-04-15T07:21:06;10.50;87.50
68691;DHT22;55675;49.588;8.640;2023-04-15T07:23:32;10.60;86.80
68691;DHT22;55675;49.588;8.640;2023-04-15T07:25:58;10.70;86.40
68691;DHT22;55675;49.588;8.640;2023-04-15T07:28:23;10.90;86.30
68691;DHT22;55675;49.588;8.640;2023-04-15T07:30:49;11.00;84.60
68691;DHT22;55675;49.588;8.640;2023-04-15T07:33:14;11.00;84.30
68691;DHT22;55675;49.588;8.640;2023-04-15T07:35:40;11.00;83.80
68691;DHT22;55675;49.588;8.640;2023-04-15T07:38:05;11.10;83.80
68691;DHT22;55675;49.588;8.640;2023-04-15T07:40:31;11.10;84.90
68691;DHT22;55675;49.588;8.640;2023-04-15T07:42:57;11.20;83.00
68691;DHT22;55675;49.588;8.640;2023-04-15T07:45:23;11.30;83.20
68691;DHT22;55675;49.588;8.640;2023-04-15T07:47:48;11.50;83.70
68691;DHT22;55675;49.588;8.640;2023-04-15T07:50:15;11.60;83.30
68691;DHT22;55675;49.588;8.640;2023-04-15T07:52:42;11.80;82.70
68691;DHT22;55675;49.588;8.640;2023-04-15T07:55:08;12.00;81.90
68691;DHT22;55675;49.588;8.640;2023-04-15T07:57:34;12.10;81.70
68691;DHT22;55675;49.588;8.640;2023-04-15T08:00:00;12.20;80.60
68691;DHT22;55675;49.588;8.640;2023-04-15T08:02:28;12.30;80.00
68691;DHT22;55675;49.588;8.640;2023-04-15T08:04:53;12.30;78.90
68691;DHT22;55675;49.588;8.640;2023-04-15T08:07:19;12.30;79.30
68691;DHT22;55675;49.588;8.640;2023-04-15T08:09:45;12.40;79.70
68691;DHT22;55675;49.588;8.640;2023-04-15T08:12:11;12.50;79.20
68691;DHT22;55675;49.588;8.640;2023-04-15T08:14:38;12.50;78.80
68691;DHT22;55675;49.588;8.640;2023-04-15T08:17:04;12.70;78.60
68691;DHT22;55675;49.588;8.640;2023-04-15T08:19:30;12.80;77.20
68691;DHT22;55675;49.588;8.640;2023-04-15T08:21:55;12.80;77.10
68691;DHT22;55675;49.588;8.640;2023-04-15T08:24:22;12.90;76.70
68691;DHT22;55675;49.588;8.640;2023-04-15T08:26:48;13.00;76.40
68691;DHT22;55675;49.588;8.640;2023-04-15T08:29:13;13.10;76.50
68691;DHT22;55675;49.588;8.640;2023-04-15T08:31:39;13.30;76.00
68691;DHT22;55675;49.588;8.640;2023-04-15T08:34:04;13.40;75.70
68691;DHT22;55675;49.588;8.640;2023-04-15T08:36:30;13.40;75.30
68691;DHT22;55675;49.588;8.640;2023-04-15T08:38:57;13.50;75.20
68691;DHT22;55675;49.588;8.640;2023-04-15T08:41:23;13.60;75.10
68691;DHT22;55675;49.588;8.640;2023-04-15T08:44:04;13.70;74.80
68691;DHT22;55675;49.588;8.640;2023-04-15T08:46:31;13.70;73.80
68691;DHT22;55675;49.588;8.640;2023-04-15T08:48:59;13.90;74.10
68691;DHT22;55675;49.588;8.640;2023-04-15T08:51:27;14.00;73.50
68691;DHT22;55675;49.588;8.640;2023-04-15T08:53:53;14.10;73.70
68691;DHT22;55675;49.588;8.640;2023-04-15T08:56:25;14.40;73.30
68691;DHT22;55675;49.588;8.640;2023-04-15T08:58:51;14.50;72.80
68691;DHT22;55675;49.588;8.640;2023-04-15T09:01:17;14.70;72.40
68691;DHT22;55675;49.588;8.640;2023-04-15T09:03:43;14.90;71.40
68691;DHT22;55675;49.588;8.640;2023-04-15T09:06:09;15.00;71.20
68691;DHT22;55675;49.588;8.640;2023-04-15T09:08:35;15.10;70.90
68691;DHT22;55675;49.588;8.640;2023-04-15T09:11:01;15.00;70.90
68691;DHT22;55675;49.588;8.640;2023-04-15T09:13:27;15.00;71.70
68691;DHT22;55675;49.588;8.640;2023-04-15T09:15:53;15.10;72.20
68691;DHT22;55675;49.588;8.640;2023-04-15T09:18:30;15.20;71.60
68691;DHT22;55675;49.588;8.640;2023-04-15T09:21:06;15.30;71.20
68691;DHT22;55675;49.588;8.640;2023-04-15T09:23:34;15.60;71.20
68691;DHT22;55675;49.588;8.640;2023-04-15T09:26:01;15.80;70.00
68691;DHT22;55675;49.588;8.640;2023-04-15T09:28:29;16.00;69.40
68691;DHT22;55675;49.588;8.640;2023-04-15T09:30:59;16.20;66.40
68691;DHT22;55675;49.588;8.640;2023-04-15T09:33:25;16.30;60.40
68691;DHT22;55675;49.588;8.640;2023-04-15T09:36:02;16.50;60.50
68691;DHT22;55675;49.588;8.640;2023-04-15T09:38:28;16.60;60.10
68691;DHT22;55675;49.588;8.640;2023-04-15T09:40:55;16.80;59.90
68691;DHT22;55675;49.588;8.640;2023-04-15T09:43:21;17.10;58.20
68691;DHT22;55675;49.588;8.640;2023-04-15T09:45:48;17.30;60.00
68691;DHT22;55675;49.588;8.640;2023-04-15T09:48:19;17.60;58.00
68691;DHT22;55675;49.588;8.640;2023-04-15T09:50:49;17.80;57.70
68691;DHT22;55675;49.588;8.640;2023-04-15T09:53:20;18.00;57.20
68691;DHT22;55675;49.588;8.640;2023-04-15T09:55:51;18.20;56.60
68691;DHT22;55675;49.588;8.640;2023-04-15T09:58:18;18.30;54.60
68691;DHT22;55675;49.588;8.640;2023-04-15T10:00:46;18.40;54.00
68691;DHT22;55675;49.588;8.640;2023-04-15T10:03:14;18.40;52.60
68691;DHT22;55675;49.588;8.640;2023-04-15T10:05:40;18.50;52.00
68691;DHT22;55675;49.588;8.640;2023-04-15T10:08:05;18.60;52.30
68691;DHT22;55675;49.588;8.640;2023-04-15T10:10:32;18.70;50.10
68691;DHT22;55675;49.588;8.640;2023-04-15T10:12:57;18.70;50.10
68691;DHT22;55675;49.588;8.640;2023-04-15T10:15:23;18.90;49.10
68691;DHT22;55675;49.588;8.640;2023-04-15T10:17:50;19.00;48.80
68691;DHT22;55675;49.588;8.640;2023-04-15T10:20:18;19.10;48.00
68691;DHT22;55675;49.588;8.640;2023-04-15T10:22:45;19.10;48.80
68691;DHT22;55675;49.588;8.640;2023-04-15T10:25:11;19.30;48.30
68691;DHT22;55675;49.588;8.640;2023-04-15T10:27:39;19.40;48.10
68691;DHT22;55675;49.588;8.640;2023-04-15T10:30:07;19.60;47.60
68691;DHT22;55675;49.588;8.640;2023-04-15T10:32:33;19.70;46.70
68691;DHT22;55675;49.588;8.640;2023-04-15T10:34:59;19.70;45.60
68691;DHT22;55675;49.588;8.640;2023-04-15T10:37:37;19.60;44.90
68691;DHT22;55675;49.588;8.640;2023-04-15T10:42:53;19.50;45.20
68691;DHT22;55675;49.588;8.640;2023-04-15T10:45:19;19.50;42.30
68691;DHT22;55675;49.588;8.640;2023-04-15T10:47:44;19.40;42.10
68691;DHT22;55675;49.588;8.640;2023-04-15T10:50:10;19.30;42.00
68691;DHT22;55675;49.588;8.640;2023-04-15T10:52:39;19.30;42.20
68691;DHT22;55675;49.588;8.640;2023-04-15T10:55:20;19.30;42.60
68691;DHT22;55675;49.588;8.640;2023-04-15T10:57:48;19.30;42.60
68691;DHT22;55675;49.588;8.640;2023-04-15T11:00:16;19.20;40.50
68691;DHT22;55675;49.588;8.640;2023-04-15T11:02:44;19.10;41.00
68691;DHT22;55675;49.588;8.640;2023-04-15T11:05:15;19.10;41.50
68691;DHT22;55675;49.588;8.640;2023-04-15T11:13:01;18.90;39.80
68691;DHT22;55675;49.588;8.640;2023-04-15T11:15:29;18.80;40.90
68691;DHT22;55675;49.588;8.640;2023-04-15T11:17:55;18.80;41.50
68691;DHT22;55675;49.588;8.640;2023-04-15T11:20:22;18.70;42.70
68691;DHT22;55675;49.588;8.640;2023-04-15T11:22:52;18.70;42.70
68691;DHT22;55675;49.588;8.640;2023-04-15T11:25:22;18.60;43.20
68691;DHT22;55675;49.588;8.640;2023-04-15T11:27:47;18.70;42.80
68691;DHT22;55675;49.588;8.640;2023-04-15T11:30:22;18.60;42.60
68691;DHT22;55675;49.588;8.640;2023-04-15T11:32:54;18.50;43.20
68691;DHT22;55675;49.588;8.640;2023-04-15T11:35:19;18.70;43.00
68691;DHT22;55675;49.588;8.640;2023-04-15T11:37:45;18.70;42.20
68691;DHT22;55675;49.588;8.640;2023-04-15T11:40:11;18.70;43.00
68691;DHT22;55675;49.588;8.640;2023-04-15T11:42:37;18.80;43.00
68691;DHT22;55675;49.588;8.640;2023-04-15T11:45:11;18.90;42.60
68691;DHT22;55675;49.588;8.640;2023-04-15T11:47:41;19.10;43.60
68691;DHT22;55675;49.588;8.640;2023-04-15T11:50:22;19.40;43.60
68691;DHT22;55675;49.588;8.640;2023-04-15T11:53:01;19.80;42.40
68691;DHT22;55675;49.588;8.640;2023-04-15T11:55:28;20.20;41.70
68691;DHT22;55675;49.588;8.640;2023-04-15T11:58:14;20.40;40.70
68691;DHT22;55675;49.588;8.640;2023-04-15T12:00:45;20.60;40.40
68691;DHT22;55675;49.588;8.640;2023-04-15T12:03:24;20.80;40.80
68691;DHT22;55675;49.588;8.640;2023-04-15T12:09:02;20.80;37.20
68691;DHT22;55675;49.588;8.640;2023-04-15T12:11:33;20.60;37.70
68691;DHT22;55675;49.588;8.640;2023-04-15T12:17:06;20.50;38.90
68691;DHT22;55675;49.588;8.640;2023-04-15T12:19:40;20.30;38.50
68691;DHT22;55675;49.588;8.640;2023-04-15T12:22:14;20.10;39.10
68691;DHT22;55675;49.588;8.640;2023-04-15T12:24:42;19.80;38.70
68691;DHT22;55675;49.588;8.640;2023-04-15T12:27:14;19.40;38.70
68691;DHT22;55675;49.588;8.640;2023-04-15T12:29:41;19.20;39.60
68691;DHT22;55675;49.588;8.640;2023-04-15T12:32:12;19.00;39.90
68691;DHT22;55675;49.588;8.640;2023-04-15T12:34:51;18.70;40.30
68691;DHT22;55675;49.588;8.640;2023-04-15T12:37:17;18.60;41.50
68691;DHT22;55675;49.588;8.640;2023-04-15T12:39:44;18.40;42.00
68691;DHT22;55675;49.588;8.640;2023-04-15T12:42:10;18.30;42.80
68691;DHT22;55675;49.588;8.640;2023-04-15T12:44:37;18.20;43.20
68691;DHT22;55675;49.588;8.640;2023-04-15T12:47:03;18.20;43.30
68691;DHT22;55675;49.588;8.640;2023-04-15T12:49:30;18.20;43.80
68691;DHT22;55675;49.588;8.640;2023-04-15T12:51:57;18.30;43.30
68691;DHT22;55675;49.588;8.640;2023-04-15T12:54:25;18.30;42.60
68691;DHT22;55675;49.588;8.640;2023-04-15T12:56:51;18.20;42.70
68691;DHT22;55675;49.588;8.640;2023-04-15T12:59:17;18.20;42.50
68691;DHT22;55675;49.588;8.640;2023-04-15T13:01:43;18.30;42.50
68691;DHT22;55675;49.588;8.640;2023-04-15T13:04:09;18.20;42.30
68691;DHT22;55675;49.588;8.640;2023-04-15T13:06:35;18.20;41.50
68691;DHT22;55675;49.588;8.640;2023-04-15T13:09:02;18.20;42.30
68691;DHT22;55675;49.588;8.640;2023-04-15T13:11:29;18.30;43.00
68691;DHT22;55675;49.588;8.640;2023-04-15T13:14:05;18.30;42.80
68691;DHT22;55675;49.588;8.640;2023-04-15T13:16:32;18.20;42.80
68691;DHT22;55675;49.588;8.640;2023-04-15T13:19:01;18.10;42.20
68691;DHT22;55675;49.588;8.640;2023-04-15T13:21:27;17.90;42.90
68691;DHT22;55675;49.588;8.640;2023-04-15T13:23:53;17.80;43.40
68691;DHT22;55675;49.588;8.640;2023-04-15T13:26:19;17.80;43.80
68691;DHT22;55675;49.588;8.640;2023-04-15T13:28:44;17.60;44.50
68691;DHT22;55675;49.588;8.640;2023-04-15T13:31:10;17.50;45.60
68691;DHT22;55675;49.588;8.640;2023-04-15T13:33:36;17.40;46.70
68691;DHT22;55675;49.588;8.640;2023-04-15T13:36:01;17.20;47.50
68691;DHT22;55675;49.588;8.640;2023-04-15T13:38:27;17.20;48.40
68691;DHT22;55675;49.588;8.640;2023-04-15T13:40:52;17.20;49.30
68691;DHT22;55675;49.588;8.640;2023-04-15T13:43:18;17.20;49.60
68691;DHT22;55675;49.588;8.640;2023-04-15T13:45:45;17.20;50.60
68691;DHT22;55675;49.588;8.640;2023-04-15T13:48:10;17.30;50.60
68691;DHT22;55675;49.588;8.640;2023-04-15T13:50:36;17.40;50.40
68691;DHT22;55675;49.588;8.640;2023-04-15T13:53:01;17.50;50.90
68691;DHT22;55675;49.588;8.640;2023-04-15T13:55:27;17.50;50.80
68691;DHT22;55675;49.588;8.640;2023-04-15T13:57:53;17.50;51.20
68691;DHT22;55675;49.588;8.640;2023-04-15T14:00:18;17.60;51.10
68691;DHT22;55675;49.588;8.640;2023-04-15T14:02:44;17.70;51.80
68691;DHT22;55675;49.588;8.640;2023-04-15T14:05:10;17.80;52.50
68691;DHT22;55675;49.588;8.640;2023-04-15T14:07:36;17.90;53.90
68691;DHT22;55675;49.588;8.640;2023-04-15T14:10:03;18.00;55.60
68691;DHT22;55675;49.588;8.640;2023-04-15T14:12:29;18.20;57.00
68691;DHT22;55675;49.588;8.640;2023-04-15T14:14:54;18.20;56.40
68691;DHT22;55675;49.588;8.640;2023-04-15T14:17:20;18.20;56.10
68691;DHT22;55675;49.588;8.640;2023-04-15T14:19:45;18.20;56.70
68691;DHT22;55675;49.588;8.640;2023-04-15T14:22:11;18.10;55.60
68691;DHT22;55675;49.588;8.640;2023-04-15T14:24:37;18.00;55.50
68691;DHT22;55675;49.588;8.640;2023-04-15T14:27:02;17.90;56.30
68691;DHT22;55675;49.588;8.640;2023-04-15T14:29:28;17.80;56.40
68691;DHT22;55675;49.588;8.640;2023-04-15T14:31:53;17.60;56.90
68691;DHT22;55675;49.588;8.640;2023-04-15T14:34:21;17.40;57.40
68691;DHT22;55675;49.588;8.640;2023-04-15T14:36:50;17.10;57.60
68691;DHT22;55675;49.588;8.640;2023-04-15T14:39:15;17.00;58.60
68691;DHT22;55675;49.588;8.640;2023-04-15T14:41:41;16.90;59.50
68691;DHT22;55675;49.588;8.640;2023-04-15T14:44:06;16.70;59.70
68691;DHT22;55675;49.588;8.640;2023-04-15T14:46:33;16.50;60.00
68691;DHT22;55675;49.588;8.640;2023-04-15T14:48:59;16.40;60.70
68691;DHT22;55675;49.588;8.640;2023-04-15T14:51:24;16.20;60.90
68691;DHT22;55675;49.588;8.640;2023-04-15T14:53:51;16.10;61.90
68691;DHT22;55675;49.588;8.640;2023-04-15T14:56:16;15.90;62.20
68691;DHT22;55675;49.588;8.640;2023-04-15T14:58:42;15.70;62.30
68691;DHT22;55675;49.588;8.640;2023-04-15T15:01:07;15.40;63.30
68691;DHT22;55675;49.588;8.640;2023-04-15T15:03:33;15.20;64.30
68691;DHT22;55675;49.588;8.640;2023-04-15T15:05:58;15.10;66.00
68691;DHT22;55675;49.588;8.640;2023-04-15T15:08:24;14.90;67.60
68691;DHT22;55675;49.588;8.640;2023-04-15T15:10:49;14.80;68.10
68691;DHT22;55675;49.588;8.640;2023-04-15T15:13:16;14.70;69.40
68691;DHT22;55675;49.588;8.640;2023-04-15T15:15:41;14.70;70.40
68691;DHT22;55675;49.588;8.640;2023-04-15T15:18:07;14.70;70.40
68691;DHT22;55675;49.588;8.640;2023-04-15T15:20:32;14.60;72.00
68691;DHT22;55675;49.588;8.640;2023-04-15T15:22:59;14.60;73.60
68691;DHT22;55675;49.588;8.640;2023-04-15T15:25:24;14.60;74.90
68691;DHT22;55675;49.588;8.640;2023-04-15T15:27:50;14.70;75.00
68691;DHT22;55675;49.588;8.640;2023-04-15T15:30:16;14.80;75.40
68691;DHT22;55675;49.588;8.640;2023-04-15T15:32:42;14.80;75.30
68691;DHT22;55675;49.588;8.640;2023-04-15T15:35:09;14.80;75.10
68691;DHT22;55675;49.588;8.640;2023-04-15T15:37:35;14.70;75.70
68691;DHT22;55675;49.588;8.640;2023-04-15T15:40:03;14.70;75.40
68691;DHT22;55675;49.588;8.640;2023-04-15T15:42:30;14.60;76.10
68691;DHT22;55675;49.588;8.640;2023-04-15T15:44:56;14.50;76.50
68691;DHT22;55675;49.588;8.640;2023-04-15T15:47:22;14.40;77.60
68691;DHT22;55675;49.588;8.640;2023-04-15T15:49:48;14.30;78.60